createdAt,value
2023-03-04T00:02:42.627Z,-1.29
2023-03-04T00:05:44.193Z,-1.28
2023-03-04T00:08:46.428Z,-1.28
2023-03-04T00:11:47.920Z,-1.28
2023-03-04T00:14:49.577Z,-1.28
2023-03-04T00:17:51.277Z,-1.28
2023-03-04T00:20:52.925Z,-1.28
2023-03-04T00:23:54.624Z,-1.27
2023-03-04T00:26:56.400Z,-1.27
2023-03-04T00:29:57.923Z,-1.27
2023-03-04T00:33:02.669Z,-1.27
2023-03-04T00:36:04.830Z,-1.27
2023-03-04T00:39:06.381Z,-1.25
2023-03-04T00:42:07.934Z,-1.23
2023-03-04T00:45:10.217Z,-1.22
2023-03-04T00:48:11.879Z,-1.21
2023-03-04T00:51:13.428Z,-1.22
2023-03-04T00:54:15.075Z,-1.22
2023-03-04T00:57:16.763Z,-1.21
2023-03-04T01:00:18.665Z,-1.22
2023-03-04T01:03:20.283Z,-1.22
2023-03-04T01:06:22.218Z,-1.22
2023-03-04T01:09:24.001Z,-1.22
2023-03-04T01:12:26.194Z,-1.22
2023-03-04T01:15:27.745Z,-1.22
2023-03-04T01:18:29.402Z,-1.22
2023-03-04T01:21:31.010Z,-1.23
2023-03-04T01:24:32.787Z,-1.24
2023-03-04T01:27:34.393Z,-1.23
2023-03-04T01:30:36.147Z,-1.23
2023-03-04T01:33:38.167Z,-1.23
2023-03-04T01:36:39.783Z,-1.23
2023-03-04T01:39:41.398Z,-1.22
2023-03-04T01:42:43.867Z,-1.22
2023-03-04T01:45:47.492Z,-1.21
2023-03-04T01:48:49.227Z,-1.20
2023-03-04T01:51:53.276Z,-1.18
2023-03-04T01:54:55.503Z,-1.17
2023-03-04T01:57:57.220Z,-1.15
2023-03-04T02:00:59.207Z,-1.14
2023-03-04T02:04:00.795Z,-1.13
2023-03-04T02:07:03.830Z,-1.11
2023-03-04T02:10:06.108Z,-1.09
2023-03-04T02:13:07.798Z,-1.08
2023-03-04T02:16:09.466Z,-1.06
2023-03-04T02:19:20.474Z,-1.05
2023-03-04T02:22:22.218Z,-1.03
2023-03-04T02:25:30.500Z,-1.01
2023-03-04T02:28:31.990Z,-1.01
2023-03-04T02:31:40.326Z,-1.00
2023-03-04T02:34:47.537Z,-0.99
2023-03-04T02:37:49.169Z,-0.98
2023-03-04T02:40:51.633Z,-0.98
2023-03-04T02:43:54.820Z,-0.97
2023-03-04T02:46:57.144Z,-0.96
2023-03-04T02:49:58.773Z,-0.96
2023-03-04T02:53:00.412Z,-0.95
2023-03-04T02:56:02.145Z,-0.94
2023-03-04T02:59:03.699Z,-0.94
2023-03-04T03:02:06.689Z,-0.92
2023-03-04T03:05:08.329Z,-0.92
2023-03-04T03:08:10.042Z,-0.92
2023-03-04T03:11:11.674Z,-0.91
2023-03-04T03:14:13.527Z,-0.91
2023-03-04T03:17:15.003Z,-0.90
2023-03-04T03:20:18.029Z,-0.89
2023-03-04T03:23:19.770Z,-0.89
2023-03-04T03:26:21.650Z,-0.88
2023-03-04T03:29:23.249Z,-0.88
2023-03-04T03:32:25.076Z,-0.87
2023-03-04T03:35:26.923Z,-0.87
2023-03-04T03:38:28.554Z,-0.86
2023-03-04T03:41:30.121Z,-0.85
2023-03-04T03:44:31.972Z,-0.84
2023-03-04T03:47:33.379Z,-0.83
2023-03-04T03:50:35.431Z,-0.83
2023-03-04T03:53:40.217Z,-0.82
2023-03-04T03:56:41.787Z,-0.82
2023-03-04T03:59:43.425Z,-0.82
2023-03-04T04:02:45.220Z,-0.82
2023-03-04T04:05:46.967Z,-0.81
2023-03-04T04:08:48.644Z,-0.82
2023-03-04T04:11:50.269Z,-0.80
2023-03-04T04:14:51.821Z,-0.80
2023-03-04T04:17:53.386Z,-0.79
2023-03-04T04:20:55.176Z,-0.78
2023-03-04T04:23:56.855Z,-0.76
2023-03-04T04:26:58.506Z,-0.75
2023-03-04T04:30:00.211Z,-0.75
2023-03-04T04:33:01.881Z,-0.75
2023-03-04T04:36:04.354Z,-0.75
2023-03-04T04:39:06.168Z,-0.75
2023-03-04T04:42:10.650Z,-0.74
2023-03-04T04:45:12.574Z,-0.74
2023-03-04T04:48:14.222Z,-0.74
2023-03-04T04:51:16.082Z,-0.75
2023-03-04T04:54:17.636Z,-0.75
2023-03-04T04:57:19.409Z,-0.76
2023-03-04T05:00:21.354Z,-0.77
2023-03-04T05:03:23.708Z,-0.76
2023-03-04T05:06:26.030Z,-0.76
2023-03-04T05:09:27.626Z,-0.75
2023-03-04T05:12:29.317Z,-0.73
2023-03-04T05:15:30.922Z,-0.73
2023-03-04T05:18:32.721Z,-0.73
2023-03-04T05:21:34.369Z,-0.73
2023-03-04T05:24:35.936Z,-0.75
2023-03-04T05:27:37.580Z,-0.80
2023-03-04T05:30:40.501Z,-0.88
2023-03-04T05:33:42.076Z,-0.95
2023-03-04T05:36:43.786Z,-0.99
2023-03-04T05:39:45.401Z,-1.04
2023-03-04T05:42:47.206Z,-1.09
2023-03-04T05:45:49.409Z,-1.10
2023-03-04T05:48:51.568Z,-1.10
2023-03-04T05:51:53.145Z,-1.07
2023-03-04T05:54:54.795Z,-1.03
2023-03-04T05:57:57.227Z,-0.96
2023-03-04T06:01:02.640Z,-0.91
2023-03-04T06:04:04.846Z,-0.86
2023-03-04T06:07:06.586Z,-0.82
2023-03-04T06:10:08.413Z,-0.79
2023-03-04T06:13:10.622Z,-0.76
2023-03-04T06:16:12.293Z,-0.73
2023-03-04T06:19:13.830Z,-0.70
2023-03-04T06:22:15.493Z,-0.68
2023-03-04T06:25:17.099Z,-0.64
2023-03-04T06:28:18.660Z,-0.60
2023-03-04T06:31:20.388Z,-0.58
2023-03-04T06:34:21.985Z,-0.56
2023-03-04T06:37:23.886Z,-0.55
2023-03-04T06:40:25.467Z,-0.56
2023-03-04T06:43:27.072Z,-0.60
2023-03-04T06:46:30.467Z,-0.68
2023-03-04T06:49:32.507Z,-0.95
2023-03-04T06:52:34.018Z,-1.12
2023-03-04T06:55:35.738Z,-1.11
2023-03-04T06:58:37.621Z,-1.08
2023-03-04T07:01:39.354Z,-1.12
2023-03-04T07:04:41.150Z,-1.15
2023-03-04T07:07:42.759Z,-1.16
2023-03-04T07:10:44.335Z,-1.16
2023-03-04T07:13:46.487Z,-1.13
2023-03-04T07:16:48.135Z,-1.12
2023-03-04T07:19:49.770Z,-1.15
2023-03-04T07:22:51.460Z,-1.12
2023-03-04T07:25:53.533Z,-1.08
2023-03-04T07:28:55.028Z,-0.99
2023-03-04T07:31:56.794Z,-0.98
2023-03-04T07:34:58.517Z,-0.98
2023-03-04T07:38:00.287Z,-0.97
2023-03-04T07:41:02.660Z,-0.99
2023-03-04T07:44:05.073Z,-1.06
2023-03-04T07:47:06.739Z,-1.15
2023-03-04T07:50:09.918Z,-1.18
2023-03-04T07:53:11.558Z,-1.20
2023-03-04T07:56:14.256Z,-1.21
2023-03-04T07:59:15.987Z,-1.23
2023-03-04T08:02:17.725Z,-1.27
2023-03-04T08:05:19.461Z,-1.32
2023-03-04T08:08:21.074Z,-1.36
2023-03-04T08:11:22.764Z,-1.40
2023-03-04T08:14:24.454Z,-1.44
2023-03-04T08:17:26.455Z,-1.45
2023-03-04T08:20:28.105Z,-1.45
2023-03-04T08:23:29.705Z,-1.48
2023-03-04T08:26:39.745Z,-1.48
2023-03-04T08:29:42.326Z,-1.46
2023-03-04T08:32:44.034Z,-1.46
2023-03-04T08:35:45.498Z,-1.43
2023-03-04T08:38:47.784Z,-1.36
2023-03-04T08:41:49.393Z,-1.16
2023-03-04T08:44:51.014Z,-0.96
2023-03-04T08:47:52.635Z,-0.73
2023-03-04T08:50:54.197Z,-0.53
2023-03-04T08:53:55.893Z,-0.60
2023-03-04T08:56:57.608Z,-0.72
2023-03-04T08:59:59.399Z,-0.76
2023-03-04T09:03:01.018Z,-0.72
2023-03-04T09:06:04.220Z,-0.69
2023-03-04T09:09:05.780Z,-0.76
2023-03-04T09:12:08.064Z,-0.71
2023-03-04T09:15:11.988Z,-0.71
2023-03-04T09:18:14.732Z,-0.76
2023-03-04T09:21:16.441Z,-0.82
2023-03-04T09:24:17.901Z,-0.87
2023-03-04T09:27:19.801Z,-0.96
2023-03-04T09:30:21.659Z,-1.01
2023-03-04T09:33:23.170Z,-1.06
2023-03-04T09:36:25.067Z,-1.11
2023-03-04T09:39:26.730Z,-1.10
2023-03-04T09:42:37.278Z,-1.10
2023-03-04T09:45:44.294Z,-1.06
2023-03-04T09:48:52.423Z,-1.10
2023-03-04T09:52:05.271Z,-1.10
2023-03-04T09:55:22.109Z,-1.09
2023-03-04T09:58:38.846Z,-1.08
2023-03-04T10:01:50.101Z,-1.06
2023-03-04T10:04:53.567Z,-1.04
2023-03-04T10:07:58.586Z,-1.00
2023-03-04T10:11:01.762Z,-0.98
2023-03-04T10:14:20.406Z,-0.96
2023-03-04T10:17:27.013Z,-0.94
2023-03-04T10:20:38.878Z,-0.94
2023-03-04T10:23:40.480Z,-0.94
2023-03-04T10:26:45.089Z,-0.93
2023-03-04T10:29:48.947Z,-0.92
2023-03-04T10:32:50.940Z,-0.86
2023-03-04T10:36:24.191Z,-0.86
2023-03-04T10:39:38.545Z,-0.89
2023-03-04T10:42:40.271Z,-0.89
2023-03-04T10:45:41.861Z,-0.92
2023-03-04T10:48:43.699Z,-0.96
2023-03-04T10:51:46.370Z,-0.86
2023-03-04T10:54:50.572Z,-0.56
2023-03-04T10:57:58.059Z,-0.30
2023-03-04T11:01:05.828Z,-0.15
2023-03-04T11:04:17.461Z,-0.01
2023-03-04T11:07:20.794Z,-0.09
2023-03-04T11:10:28.416Z,-0.53
2023-03-04T11:13:31.972Z,-0.75
2023-03-04T11:16:33.603Z,-0.72
2023-03-04T11:19:38.937Z,-0.72
2023-03-04T11:22:42.055Z,-0.76
2023-03-04T11:25:47.604Z,-0.75
2023-03-04T11:29:14.493Z,-0.74
2023-03-04T11:32:37.320Z,-0.70
2023-03-04T11:36:08.388Z,-0.65
2023-03-04T11:39:17.647Z,-0.59
2023-03-04T11:42:42.903Z,-0.57
2023-03-04T11:46:02.605Z,-0.54
2023-03-04T11:49:25.353Z,-0.52
2023-03-04T11:52:49.345Z,-0.53
2023-03-04T11:56:08.778Z,-0.48
2023-03-04T11:59:34.394Z,-0.48
2023-03-04T12:02:59.566Z,-0.43
2023-03-04T12:06:38.629Z,-0.36
2023-03-04T12:09:57.284Z,-0.31
2023-03-04T12:13:14.158Z,-0.33
2023-03-04T12:16:34.803Z,-0.31
2023-03-04T12:19:59.030Z,-0.29
2023-03-04T12:23:12.032Z,-0.32
2023-03-04T12:26:24.690Z,-0.33
2023-03-04T12:29:37.844Z,-0.34
2023-03-04T12:33:10.950Z,-0.38
2023-03-04T12:36:18.315Z,-0.37
2023-03-04T12:39:25.961Z,-0.34
2023-03-04T12:42:46.417Z,-0.32
2023-03-04T12:46:06.915Z,-0.30
2023-03-04T12:49:23.739Z,-0.28
2023-03-04T12:52:44.351Z,-0.29
2023-03-04T12:55:47.224Z,-0.25
2023-03-04T12:58:48.997Z,-0.22
2023-03-04T13:02:09.580Z,-0.18
2023-03-04T13:05:26.565Z,-0.14
2023-03-04T13:08:36.844Z,-0.12
2023-03-04T13:11:55.855Z,-0.09
2023-03-04T13:15:09.811Z,-0.04
2023-03-04T13:18:30.507Z,0.02
2023-03-04T13:21:32.236Z,0.10
2023-03-04T13:24:47.123Z,0.16
2023-03-04T13:27:50.943Z,0.24
2023-03-04T13:30:53.249Z,0.29
2023-03-04T13:33:57.400Z,0.32
2023-03-04T13:36:58.973Z,0.35
2023-03-04T13:40:22.646Z,0.40
2023-03-04T13:43:29.440Z,0.46
2023-03-04T13:46:41.545Z,0.52
2023-03-04T13:49:43.199Z,0.54
2023-03-04T13:52:45.038Z,0.54
2023-03-04T13:55:59.771Z,0.58
2023-03-04T13:59:07.027Z,0.56
2023-03-04T14:02:13.749Z,0.60
2023-03-04T14:05:15.470Z,0.66
2023-03-04T14:08:19.144Z,0.63
2023-03-04T14:11:36.717Z,0.64
2023-03-04T14:14:52.832Z,0.70
2023-03-04T14:17:58.958Z,0.70
2023-03-04T14:21:00.868Z,0.72
2023-03-04T14:24:04.153Z,0.72
2023-03-04T14:27:14.018Z,0.71
2023-03-04T14:30:40.824Z,0.74
2023-03-04T14:33:50.028Z,0.77
2023-03-04T14:36:51.704Z,0.75
2023-03-04T14:39:57.249Z,0.77
2023-03-04T14:43:04.055Z,0.79
2023-03-04T14:46:08.751Z,0.78
2023-03-04T14:49:12.161Z,0.80
2023-03-04T14:52:49.910Z,0.82
2023-03-04T14:55:59.035Z,0.82
2023-03-04T14:59:00.630Z,0.78
2023-03-04T15:02:26.105Z,0.73
2023-03-04T15:05:30.545Z,0.75
2023-03-04T15:08:40.279Z,0.76
2023-03-04T15:12:02.468Z,0.76
2023-03-04T15:15:33.056Z,0.73
2023-03-04T15:18:35.028Z,0.69
2023-03-04T15:21:41.156Z,0.74
2023-03-04T15:24:42.845Z,0.76
2023-03-04T15:27:48.612Z,0.74
2023-03-04T15:30:51.284Z,0.79
2023-03-04T15:33:53.035Z,0.82
2023-03-04T15:36:54.628Z,0.84
2023-03-04T15:39:57.646Z,0.86
2023-03-04T15:43:02.043Z,0.89
2023-03-04T15:46:03.813Z,0.94
2023-03-04T15:49:05.495Z,0.99
2023-03-04T15:52:07.686Z,1.02
2023-03-04T15:55:18.797Z,1.03
2023-03-04T15:58:20.575Z,1.03
2023-03-04T16:01:22.454Z,1.05
2023-03-04T16:04:24.214Z,1.10
2023-03-04T16:07:29.429Z,1.12
2023-03-04T16:10:31.173Z,1.05
2023-03-04T16:13:32.744Z,1.10
2023-03-04T16:16:34.344Z,1.15
2023-03-04T16:19:35.953Z,1.19
2023-03-04T16:22:37.834Z,1.20
2023-03-04T16:25:39.466Z,1.23
2023-03-04T16:28:41.378Z,1.27
2023-03-04T16:31:43.438Z,1.32
2023-03-04T16:34:45.025Z,1.32
2023-03-04T16:37:47.494Z,1.28
2023-03-04T16:40:49.098Z,1.28
2023-03-04T16:43:50.736Z,1.32
2023-03-04T16:46:52.274Z,1.33
2023-03-04T16:49:53.900Z,1.37
2023-03-04T16:52:56.208Z,1.38
2023-03-04T16:55:59.986Z,1.40
2023-03-04T16:59:01.823Z,1.42
2023-03-04T17:02:03.550Z,1.43
2023-03-04T17:05:05.714Z,1.44
2023-03-04T17:08:07.294Z,1.43
2023-03-04T17:11:12.576Z,1.37
2023-03-04T17:14:14.346Z,1.42
2023-03-04T17:17:18.330Z,1.43
2023-03-04T17:20:20.565Z,1.43
2023-03-04T17:23:22.321Z,1.42
2023-03-04T17:26:23.769Z,1.41
2023-03-04T17:29:25.572Z,1.40
2023-03-04T17:32:27.088Z,1.38
2023-03-04T17:35:28.868Z,1.39
2023-03-04T17:38:30.438Z,1.40
2023-03-04T17:41:35.049Z,1.34
2023-03-04T17:44:37.696Z,1.27
2023-03-04T17:47:39.321Z,1.33
2023-03-04T17:50:51.060Z,1.37
2023-03-04T17:53:52.814Z,1.43
2023-03-04T17:56:54.449Z,1.47
2023-03-04T17:59:56.175Z,1.50
2023-03-04T18:02:57.842Z,1.51
2023-03-04T18:05:59.457Z,1.53
2023-03-04T18:09:01.173Z,1.53
2023-03-04T18:12:02.815Z,1.54
2023-03-04T18:15:05.067Z,1.50
2023-03-04T18:18:07.120Z,1.55
2023-03-04T18:21:08.912Z,1.56
2023-03-04T18:24:10.566Z,1.58
2023-03-04T18:27:12.199Z,1.60
2023-03-04T18:30:15.922Z,1.61
2023-03-04T18:33:17.677Z,1.58
2023-03-04T18:36:19.434Z,1.61
2023-03-04T18:39:20.973Z,1.63
2023-03-04T18:42:22.667Z,1.62
2023-03-04T18:45:24.229Z,1.60
2023-03-04T18:48:25.894Z,1.73
2023-03-04T18:51:27.497Z,1.85
2023-03-04T18:54:29.149Z,1.89
2023-03-04T18:57:31.121Z,1.97
2023-03-04T19:00:32.765Z,1.91
2023-03-04T19:03:34.688Z,1.76
2023-03-04T19:06:36.500Z,1.75
2023-03-04T19:09:38.234Z,1.74
2023-03-04T19:12:39.989Z,1.72
2023-03-04T19:15:41.675Z,1.69
2023-03-04T19:18:43.439Z,1.69
2023-03-04T19:21:45.294Z,1.69
2023-03-04T19:24:46.752Z,1.65
2023-03-04T19:27:48.538Z,1.64
2023-03-04T19:30:50.468Z,1.64
2023-03-04T19:33:52.113Z,1.59
2023-03-04T19:36:53.738Z,1.56
2023-03-04T19:39:55.364Z,1.60
2023-03-04T19:42:56.986Z,1.56
2023-03-04T19:45:58.492Z,1.53
2023-03-04T19:49:02.197Z,1.54
2023-03-04T19:52:04.899Z,1.53
2023-03-04T19:55:06.714Z,1.51
2023-03-04T19:58:08.344Z,1.57
2023-03-04T20:01:25.985Z,1.57
2023-03-04T20:04:27.612Z,1.54
2023-03-04T20:07:29.390Z,1.53
2023-03-04T20:10:34.644Z,1.52
2023-03-04T20:13:36.209Z,1.51
2023-03-04T20:16:37.879Z,1.50
2023-03-04T20:19:39.518Z,1.44
2023-03-04T20:22:41.360Z,1.30
2023-03-04T20:25:42.816Z,1.12
2023-03-04T20:28:44.577Z,0.95
2023-03-04T20:31:46.021Z,0.77
2023-03-04T20:34:48.145Z,0.65
2023-03-04T20:37:49.922Z,0.54
2023-03-04T20:40:51.441Z,0.45
2023-03-04T20:43:53.105Z,0.38
2023-03-04T20:46:55.225Z,0.34
2023-03-04T20:49:57.175Z,0.33
2023-03-04T20:52:58.781Z,0.31
2023-03-04T20:56:03.206Z,0.31
2023-03-04T20:59:07.249Z,0.31
2023-03-04T21:02:12.367Z,0.31
2023-03-04T21:05:13.897Z,0.32
2023-03-04T21:08:15.496Z,0.30
2023-03-04T21:11:17.893Z,0.29
2023-03-04T21:14:22.307Z,0.30
2023-03-04T21:17:23.884Z,0.30
2023-03-04T21:20:25.579Z,0.31
2023-03-04T21:23:27.359Z,0.31
2023-03-04T21:26:29.001Z,0.32
2023-03-04T21:29:30.513Z,0.31
2023-03-04T21:32:32.163Z,0.29
2023-03-04T21:35:34.530Z,0.28
2023-03-04T21:38:37.910Z,0.29
2023-03-04T21:41:40.372Z,0.27
2023-03-04T21:44:50.757Z,0.24
2023-03-04T21:47:53.013Z,0.18
2023-03-04T21:50:54.582Z,0.15
2023-03-04T21:53:56.266Z,0.10
2023-03-04T21:56:57.944Z,0.06
2023-03-04T21:59:59.484Z,0.03
2023-03-04T22:03:01.080Z,0.01
2023-03-04T22:06:06.665Z,-0.02
2023-03-04T22:09:08.294Z,-0.03
2023-03-04T22:12:09.880Z,-0.05
2023-03-04T22:15:11.876Z,-0.01
2023-03-04T22:18:14.146Z,0.05
2023-03-04T22:21:17.903Z,0.09
2023-03-04T22:24:20.264Z,0.12
2023-03-04T22:27:21.811Z,0.14
2023-03-04T22:30:23.412Z,0.15
2023-03-04T22:33:26.091Z,0.15
2023-03-04T22:36:32.799Z,0.14
2023-03-04T22:39:34.395Z,0.14
2023-03-04T22:42:36.198Z,0.13
2023-03-04T22:45:37.764Z,0.14
2023-03-04T22:48:39.386Z,0.14
2023-03-04T22:51:42.940Z,0.15
2023-03-04T22:54:44.659Z,0.17
2023-03-04T22:57:46.213Z,0.19
2023-03-04T23:00:47.854Z,0.20
2023-03-04T23:03:49.485Z,0.19
2023-03-04T23:06:51.130Z,0.18
2023-03-04T23:09:52.664Z,0.16
2023-03-04T23:12:54.303Z,0.15
2023-03-04T23:15:55.832Z,0.17
2023-03-04T23:18:59.435Z,0.18
2023-03-04T23:22:01.366Z,0.19
2023-03-04T23:25:03.000Z,0.18
2023-03-04T23:28:04.787Z,0.19
2023-03-04T23:31:06.362Z,0.17
2023-03-04T23:34:08.020Z,0.14
2023-03-04T23:37:09.744Z,0.13
2023-03-04T23:40:11.893Z,0.11
2023-03-04T23:43:13.423Z,0.09
2023-03-04T23:46:15.520Z,0.08
2023-03-04T23:49:17.321Z,0.07
2023-03-04T23:52:19.066Z,0.05
2023-03-04T23:55:20.830Z,0.04
2023-03-04T23:58:22.438Z,0.04
